createdAt,value
2023-10-08T00:00:01.537Z,62.59
2023-10-08T00:01:07.257Z,62.39
2023-10-08T00:02:13.083Z,62.43
2023-10-08T00:03:19.944Z,62.06
2023-10-08T00:04:25.609Z,62.29
2023-10-08T00:05:31.313Z,62.6
2023-10-08T00:06:36.827Z,62.06
2023-10-08T00:07:42.393Z,62.84
2023-10-08T00:08:48.113Z,62.14
2023-10-08T00:09:53.673Z,62.45
2023-10-08T00:10:59.203Z,62.66
2023-10-08T00:12:04.721Z,62.52
2023-10-08T00:13:10.261Z,62.52
2023-10-08T00:14:15.798Z,62.47
2023-10-08T00:15:21.454Z,62.26
2023-10-08T00:16:27.214Z,62.49
2023-10-08T00:17:32.990Z,61.82
2023-10-08T00:18:38.826Z,61.92
2023-10-08T00:19:44.369Z,62.12
2023-10-08T00:20:50.088Z,62.37
2023-10-08T00:21:55.637Z,62.15
2023-10-08T00:23:01.169Z,62.24
2023-10-08T00:24:06.700Z,62.06
2023-10-08T00:25:13.224Z,62.14
2023-10-08T00:26:18.858Z,62.15
2023-10-08T00:27:25.416Z,61.87
2023-10-08T00:28:31.122Z,61.83
2023-10-08T00:29:36.857Z,61.72
2023-10-08T00:30:42.563Z,61.89
2023-10-08T00:31:49.166Z,62.17
2023-10-08T00:32:54.997Z,61.68
2023-10-08T00:34:00.584Z,61.93
2023-10-08T00:35:06.312Z,61.82
2023-10-08T00:36:11.833Z,61.78
2023-10-08T00:37:17.381Z,61.7
2023-10-08T00:38:23.370Z,61.75
2023-10-08T00:39:28.952Z,62.36
2023-10-08T00:40:34.475Z,62.05
2023-10-08T00:41:40.170Z,61.98
2023-10-08T00:42:45.684Z,62.44
2023-10-08T00:43:51.235Z,61.95
2023-10-08T00:44:56.758Z,62.03
2023-10-08T00:46:02.266Z,61.89
2023-10-08T00:47:07.821Z,62.01
2023-10-08T00:48:13.532Z,62.16
2023-10-08T00:49:19.170Z,61.98
2023-10-08T00:50:24.829Z,62.18
2023-10-08T00:51:30.411Z,62.51
2023-10-08T00:52:35.968Z,62.66
2023-10-08T00:53:41.758Z,62.08
2023-10-08T00:54:47.406Z,62.43
2023-10-08T00:55:52.947Z,62.62
2023-10-08T00:56:58.523Z,62.83
2023-10-08T00:58:04.184Z,63.04
2023-10-08T00:59:09.791Z,62.67
2023-10-08T01:00:15.416Z,61.96
2023-10-08T01:01:21.165Z,62.06
2023-10-08T01:02:27.085Z,62.39
2023-10-08T01:03:32.906Z,62.88
2023-10-08T01:04:38.468Z,62.41
2023-10-08T01:05:44.276Z,63.05
2023-10-08T01:06:49.919Z,62.84
2023-10-08T01:07:55.685Z,62.82
2023-10-08T01:09:01.219Z,62.51
2023-10-08T01:10:06.704Z,62.79
2023-10-08T01:11:12.296Z,62.07
2023-10-08T01:12:17.828Z,62.39
2023-10-08T01:13:23.781Z,61.88
2023-10-08T01:14:29.474Z,61.92
2023-10-08T01:15:35.060Z,62.55
2023-10-08T01:16:40.866Z,62.59
2023-10-08T01:17:46.763Z,62.66
2023-10-08T01:18:52.419Z,62.46
2023-10-08T01:19:57.927Z,62.14
2023-10-08T01:21:03.456Z,61.96
2023-10-08T01:22:08.985Z,62.24
2023-10-08T01:23:15.128Z,62.54
2023-10-08T01:24:20.852Z,62.49
2023-10-08T01:25:26.404Z,62.43
2023-10-08T01:26:32.030Z,62.72
2023-10-08T01:27:37.533Z,62.26
2023-10-08T01:28:43.136Z,62.29
2023-10-08T01:29:48.769Z,62.51
2023-10-08T01:30:54.722Z,62.44
2023-10-08T01:32:00.343Z,62.33
2023-10-08T01:33:06.099Z,62.67
2023-10-08T01:34:11.821Z,62.78
2023-10-08T01:35:17.385Z,62.49
2023-10-08T01:36:22.966Z,61.94
2023-10-08T01:37:28.505Z,62.22
2023-10-08T01:38:34.109Z,62.3
2023-10-08T01:39:39.623Z,62.41
2023-10-08T01:40:45.185Z,62.49
2023-10-08T01:41:50.989Z,62.3
2023-10-08T01:42:56.514Z,62.25
2023-10-08T01:44:02.192Z,62.26
2023-10-08T01:45:07.724Z,61.85
2023-10-08T01:46:13.366Z,62
2023-10-08T01:47:19.164Z,62.29
2023-10-08T01:48:24.842Z,62.64
2023-10-08T01:49:30.394Z,62.04
2023-10-08T01:50:36.104Z,62.55
2023-10-08T01:51:41.709Z,62.65
2023-10-08T01:52:47.263Z,62.64
2023-10-08T01:53:55.513Z,62.71
2023-10-08T01:55:01.166Z,62.05
2023-10-08T01:56:06.775Z,62.49
2023-10-08T01:57:12.409Z,62.69
2023-10-08T01:58:17.935Z,62.56
2023-10-08T01:59:23.528Z,62.54
2023-10-08T02:00:29.104Z,62.85
2023-10-08T02:01:34.758Z,62.25
2023-10-08T02:02:40.904Z,62.77
2023-10-08T02:03:46.796Z,62.69
2023-10-08T02:04:52.556Z,62.59
2023-10-08T02:05:58.203Z,62.77
2023-10-08T02:07:03.795Z,62.79
2023-10-08T02:08:09.328Z,62.44
2023-10-08T02:09:15.425Z,62.82
2023-10-08T02:10:20.920Z,62.31
2023-10-08T02:11:26.537Z,62.21
2023-10-08T02:12:32.083Z,62.14
2023-10-08T02:13:37.606Z,62.15
2023-10-08T02:14:43.262Z,62.62
2023-10-08T02:15:49.013Z,62.06
2023-10-08T02:16:54.608Z,61.88
2023-10-08T02:18:00.344Z,61.93
2023-10-08T02:19:05.962Z,61.91
2023-10-08T02:20:11.503Z,61.97
2023-10-08T02:21:17.031Z,62.05
2023-10-08T02:22:22.572Z,62.17
2023-10-08T02:23:28.314Z,61.99
2023-10-08T02:24:33.904Z,62.04
2023-10-08T02:25:39.484Z,62.09
2023-10-08T02:26:45.254Z,62.1
2023-10-08T02:27:50.770Z,61.96
2023-10-08T02:28:56.286Z,61.95
2023-10-08T02:30:01.787Z,61.9
2023-10-08T02:31:07.388Z,62.37
2023-10-08T02:32:12.963Z,62.34
2023-10-08T02:33:19.462Z,62.15
2023-10-08T02:34:25.067Z,62.24
2023-10-08T02:35:30.734Z,61.86
2023-10-08T02:36:36.268Z,61.83
2023-10-08T02:37:41.811Z,61.72
2023-10-08T02:38:47.583Z,61.81
2023-10-08T02:39:53.216Z,61.8
2023-10-08T02:40:58.782Z,61.81
2023-10-08T02:42:04.532Z,61.81
2023-10-08T02:43:10.093Z,61.83
2023-10-08T02:44:15.720Z,61.77
2023-10-08T02:45:21.307Z,62.19
2023-10-08T02:46:27.075Z,61.75
2023-10-08T02:47:32.930Z,61.86
2023-10-08T02:48:38.628Z,61.75
2023-10-08T02:49:44.175Z,62
2023-10-08T02:50:50.044Z,61.79
2023-10-08T02:51:55.734Z,62
2023-10-08T02:53:01.270Z,61.91
2023-10-08T02:54:06.842Z,61.8
2023-10-08T02:55:12.373Z,61.83
2023-10-08T02:56:18.137Z,61.77
2023-10-08T02:57:23.684Z,61.86
2023-10-08T02:58:29.216Z,61.86
2023-10-08T02:59:34.875Z,61.7
2023-10-08T03:00:40.398Z,61.8
2023-10-08T03:01:46.130Z,61.76
2023-10-08T03:02:52.106Z,61.75
2023-10-08T03:03:59.161Z,61.64
2023-10-08T03:05:04.701Z,61.65
2023-10-08T03:06:11.344Z,61.75
2023-10-08T03:07:16.855Z,61.86
2023-10-08T03:08:22.914Z,61.83
2023-10-08T03:09:28.632Z,61.73
2023-10-08T03:10:34.178Z,61.76
2023-10-08T03:11:39.781Z,61.67
2023-10-08T03:12:45.348Z,61.81
2023-10-08T03:13:50.877Z,61.93
2023-10-08T03:14:56.426Z,61.93
2023-10-08T03:16:02.481Z,61.97
2023-10-08T03:17:08.024Z,61.79
2023-10-08T03:18:13.933Z,61.84
2023-10-08T03:19:19.548Z,62.08
2023-10-08T03:20:25.160Z,62.05
2023-10-08T03:21:30.742Z,61.88
2023-10-08T03:22:36.308Z,61.95
2023-10-08T03:23:42.102Z,61.77
2023-10-08T03:24:47.633Z,61.77
2023-10-08T03:25:53.202Z,61.9
2023-10-08T03:26:58.788Z,61.82
2023-10-08T03:28:04.423Z,61.74
2023-10-08T03:29:10.007Z,62.13
2023-10-08T03:30:15.758Z,61.87
2023-10-08T03:31:21.359Z,62.11
2023-10-08T03:32:27.271Z,62.43
2023-10-08T03:33:32.911Z,62.12
2023-10-08T03:34:38.544Z,62.3
2023-10-08T03:35:44.149Z,61.96
2023-10-08T03:36:49.712Z,62.03
2023-10-08T03:37:55.308Z,61.96
2023-10-08T03:39:01.198Z,61.95
2023-10-08T03:40:06.788Z,62.08
2023-10-08T03:41:12.352Z,62.12
2023-10-08T03:42:17.890Z,61.98
2023-10-08T03:43:23.460Z,62.16
2023-10-08T03:44:28.987Z,62.37
2023-10-08T03:45:34.722Z,62.13
2023-10-08T03:46:40.271Z,61.94
2023-10-08T03:47:46.042Z,61.91
2023-10-08T03:48:51.599Z,61.89
2023-10-08T03:49:57.111Z,61.97
2023-10-08T03:51:02.649Z,62.09
2023-10-08T03:52:08.176Z,61.92
2023-10-08T03:53:13.792Z,61.97
2023-10-08T03:54:19.468Z,62.11
2023-10-08T03:55:25.008Z,62.01
2023-10-08T03:56:30.585Z,62.13
2023-10-08T03:57:36.183Z,62.06
2023-10-08T03:58:41.710Z,62.03
2023-10-08T03:59:47.483Z,62.06
2023-10-08T04:00:53.063Z,62.14
2023-10-08T04:01:58.618Z,62.76
2023-10-08T04:03:04.357Z,61.96
2023-10-08T04:04:10.132Z,62.18
2023-10-08T04:05:15.859Z,62.18
2023-10-08T04:06:21.381Z,62.9
2023-10-08T04:07:26.938Z,62.89
2023-10-08T04:08:32.577Z,62.68
2023-10-08T04:09:38.170Z,62.45
2023-10-08T04:10:43.751Z,62.23
2023-10-08T04:11:49.528Z,62.05
2023-10-08T04:12:55.145Z,61.79
2023-10-08T04:14:00.681Z,62.11
2023-10-08T04:15:06.196Z,61.73
2023-10-08T04:16:11.910Z,61.91
2023-10-08T04:17:17.556Z,61.44
2023-10-08T04:18:23.610Z,61.65
2023-10-08T04:19:29.701Z,61.65
2023-10-08T04:20:35.652Z,61.65
2023-10-08T04:21:41.224Z,61.54
2023-10-08T04:22:46.786Z,61.47
2023-10-08T04:23:52.682Z,61.39
2023-10-08T04:24:58.232Z,61.39
2023-10-08T04:26:03.778Z,61.54
2023-10-08T04:27:09.405Z,61.58
2023-10-08T04:28:14.963Z,61.39
2023-10-08T04:29:20.739Z,61.59
2023-10-08T04:30:26.362Z,61.41
2023-10-08T04:31:32.098Z,61.54
2023-10-08T04:32:37.830Z,61.5
2023-10-08T04:33:43.364Z,61.45
2023-10-08T04:34:48.848Z,61.58
2023-10-08T04:35:54.656Z,61.7
2023-10-08T04:37:00.323Z,61.6
2023-10-08T04:38:05.904Z,61.7
2023-10-08T04:39:11.703Z,61.49
2023-10-08T04:40:17.405Z,61.88
2023-10-08T04:41:23.256Z,61.74
2023-10-08T04:42:29.275Z,61.94
2023-10-08T04:43:35.266Z,61.7
2023-10-08T04:44:40.915Z,61.58
2023-10-08T04:45:46.557Z,61.69
2023-10-08T04:46:52.215Z,61.68
2023-10-08T04:47:57.941Z,61.67
2023-10-08T04:49:03.552Z,61.92
2023-10-08T04:50:09.298Z,62.07
2023-10-08T04:51:17.278Z,61.93
2023-10-08T04:52:22.807Z,61.78
2023-10-08T04:53:28.481Z,61.92
2023-10-08T04:54:34.418Z,62.03
2023-10-08T04:55:42.418Z,62.07
2023-10-08T04:56:48.139Z,61.99
2023-10-08T04:57:53.711Z,61.87
2023-10-08T04:58:59.243Z,61.98
2023-10-08T05:00:04.761Z,62.17
2023-10-08T05:01:10.417Z,62.04
2023-10-08T05:02:16.089Z,61.96
2023-10-08T05:03:22.071Z,62
2023-10-08T05:04:32.438Z,62.31
2023-10-08T05:05:38.032Z,61.88
2023-10-08T05:06:43.595Z,61.88
2023-10-08T05:07:49.115Z,61.25
2023-10-08T05:08:54.753Z,61.85
2023-10-08T05:10:00.297Z,61.37
2023-10-08T05:11:05.786Z,62.01
2023-10-08T05:12:11.334Z,62.06
2023-10-08T05:13:16.893Z,61.55
2023-10-08T05:14:22.619Z,61.44
2023-10-08T05:15:28.135Z,61.82
2023-10-08T05:16:33.842Z,61.72
2023-10-08T05:17:39.660Z,61.84
2023-10-08T05:18:45.344Z,61.46
2023-10-08T05:19:50.876Z,61.9
2023-10-08T05:20:56.527Z,61.91
2023-10-08T05:22:04.836Z,61.82
2023-10-08T05:23:10.403Z,62.04
2023-10-08T05:24:15.954Z,61.99
2023-10-08T05:25:21.499Z,61.78
2023-10-08T05:26:27.146Z,61.98
2023-10-08T05:27:32.718Z,61.82
2023-10-08T05:28:38.279Z,61.95
2023-10-08T05:29:44.011Z,61.73
2023-10-08T05:30:49.730Z,61.78
2023-10-08T05:31:55.320Z,61.98
2023-10-08T05:33:01.128Z,61.76
2023-10-08T05:34:06.794Z,62.06
2023-10-08T05:35:12.339Z,61.83
2023-10-08T05:36:17.921Z,61.64
2023-10-08T05:37:23.465Z,62.21
2023-10-08T05:38:29.019Z,61.87
2023-10-08T05:39:37.971Z,62.05
2023-10-08T05:40:43.571Z,62.09
2023-10-08T05:41:49.203Z,62.1
2023-10-08T05:42:54.894Z,62.4
2023-10-08T05:44:00.425Z,62.28
2023-10-08T05:45:05.958Z,62.28
2023-10-08T05:46:11.497Z,61.93
2023-10-08T05:47:16.998Z,62.13
2023-10-08T05:48:22.826Z,62.36
2023-10-08T05:49:28.382Z,62.22
2023-10-08T05:50:34.002Z,62.03
2023-10-08T05:51:39.588Z,61.91
2023-10-08T05:52:45.458Z,62.14
2023-10-08T05:53:51.151Z,61.9
2023-10-08T05:54:57.895Z,62.35
2023-10-08T05:56:03.786Z,62.03
2023-10-08T05:57:09.356Z,61.45
2023-10-08T05:58:14.968Z,60.17
2023-10-08T05:59:21.102Z,60.35
2023-10-08T06:00:26.714Z,59.45
2023-10-08T06:01:32.448Z,60.56
2023-10-08T06:02:38.633Z,60.43
2023-10-08T06:03:44.637Z,61.02
2023-10-08T06:04:50.201Z,60.84
2023-10-08T06:05:55.846Z,60
2023-10-08T06:07:01.426Z,60.19
2023-10-08T06:08:06.964Z,59.96
2023-10-08T06:09:13.214Z,60.25
2023-10-08T06:10:18.919Z,60.04
2023-10-08T06:11:24.533Z,59.7
2023-10-08T06:12:30.059Z,59.62
2023-10-08T06:13:35.647Z,59.6
2023-10-08T06:14:41.256Z,59.56
2023-10-08T06:15:46.788Z,59.57
2023-10-08T06:16:52.452Z,59.65
2023-10-08T06:18:01.372Z,59.46
2023-10-08T06:19:07.088Z,59.55
2023-10-08T06:20:12.611Z,59.38
2023-10-08T06:21:18.162Z,59.4
2023-10-08T06:22:23.662Z,59.3
2023-10-08T06:23:29.523Z,59.02
2023-10-08T06:24:35.135Z,58.97
2023-10-08T06:25:40.659Z,59.2
2023-10-08T06:26:46.575Z,59.23
2023-10-08T06:27:52.219Z,59.19
2023-10-08T06:28:57.765Z,59.36
2023-10-08T06:30:03.329Z,59.38
2023-10-08T06:31:08.987Z,59.43
2023-10-08T06:32:14.516Z,59.46
2023-10-08T06:33:20.471Z,59.49
2023-10-08T06:34:26.077Z,59.41
2023-10-08T06:35:31.823Z,59.46
2023-10-08T06:36:37.706Z,59.54
2023-10-08T06:37:43.253Z,59.55
2023-10-08T06:38:48.905Z,59.5
2023-10-08T06:39:54.397Z,59.47
2023-10-08T06:41:00.824Z,59.49
2023-10-08T06:42:07.024Z,59.44
2023-10-08T06:43:12.561Z,59.4
2023-10-08T06:44:19.198Z,59.44
2023-10-08T06:45:24.797Z,59.42
2023-10-08T06:46:30.412Z,59.31
2023-10-08T06:47:36.211Z,59.4
2023-10-08T06:48:42.061Z,59.26
2023-10-08T06:49:47.803Z,59.25
2023-10-08T06:50:53.677Z,59.01
2023-10-08T06:51:59.341Z,59.26
2023-10-08T06:53:04.885Z,59.06
2023-10-08T06:54:10.634Z,59.24
2023-10-08T06:55:16.172Z,59.06
2023-10-08T06:56:21.730Z,59.11
2023-10-08T06:57:27.278Z,59.2
2023-10-08T06:58:32.881Z,59.21
2023-10-08T06:59:38.605Z,59.04
2023-10-08T07:00:44.326Z,59
2023-10-08T07:01:50.340Z,59.15
2023-10-08T07:02:56.383Z,59.04
2023-10-08T07:04:02.819Z,59.05
2023-10-08T07:05:08.807Z,58.82
2023-10-08T07:06:14.513Z,58.92
2023-10-08T07:07:20.303Z,58.97
2023-10-08T07:08:26.076Z,58.98
2023-10-08T07:09:32.516Z,58.75
2023-10-08T07:10:38.059Z,58.88
2023-10-08T07:11:43.789Z,58.91
2023-10-08T07:12:49.348Z,58.93
2023-10-08T07:13:54.897Z,58.75
2023-10-08T07:15:00.544Z,58.88
2023-10-08T07:16:06.081Z,58.88
2023-10-08T07:17:11.780Z,58.69
2023-10-08T07:18:17.642Z,58.77
2023-10-08T07:19:23.322Z,58.66
2023-10-08T07:20:29.411Z,58.77
2023-10-08T07:21:34.929Z,58.66
2023-10-08T07:22:40.528Z,58.73
2023-10-08T07:23:46.153Z,58.54
2023-10-08T07:24:51.978Z,58.89
2023-10-08T07:25:57.635Z,58.72
2023-10-08T07:27:03.301Z,58.72
2023-10-08T07:28:08.894Z,58.71
2023-10-08T07:29:14.413Z,58.55
2023-10-08T07:30:19.999Z,58.4
2023-10-08T07:31:25.554Z,58.39
2023-10-08T07:32:31.382Z,58.34
2023-10-08T07:33:37.153Z,58.27
2023-10-08T07:34:42.754Z,58.34
2023-10-08T07:35:48.437Z,58.23
2023-10-08T07:36:56.461Z,58.27
2023-10-08T07:38:02.003Z,58.14
2023-10-08T07:39:07.814Z,58.14
2023-10-08T07:40:13.370Z,58.13
2023-10-08T07:41:18.890Z,58.07
2023-10-08T07:42:27.368Z,58.05
2023-10-08T07:43:32.891Z,57.98
2023-10-08T07:44:39.252Z,57.92
2023-10-08T07:45:44.865Z,57.94
2023-10-08T07:46:50.386Z,57.91
2023-10-08T07:47:56.115Z,57.94
2023-10-08T07:49:01.715Z,57.91
2023-10-08T07:50:07.292Z,57.88
2023-10-08T07:51:12.798Z,57.84
2023-10-08T07:52:19.334Z,57.8
2023-10-08T07:53:25.022Z,57.79
2023-10-08T07:54:30.714Z,57.77
2023-10-08T07:55:36.267Z,57.78
2023-10-08T07:56:42.116Z,57.76
2023-10-08T07:57:47.808Z,57.75
2023-10-08T07:58:53.291Z,57.74
2023-10-08T07:59:59.539Z,57.69
2023-10-08T08:01:05.084Z,57.66
2023-10-08T08:02:10.694Z,57.7
2023-10-08T08:03:16.573Z,57.58
2023-10-08T08:04:22.301Z,57.55
2023-10-08T08:05:28.277Z,57.52
2023-10-08T08:06:33.820Z,57.46
2023-10-08T08:07:39.374Z,57.49
2023-10-08T08:08:45.042Z,57.47
2023-10-08T08:09:54.253Z,57.49
2023-10-08T08:10:59.777Z,57.5
2023-10-08T08:12:05.557Z,57.43
2023-10-08T08:13:11.088Z,57.38
2023-10-08T08:14:16.889Z,57.37
2023-10-08T08:15:22.421Z,57.35
2023-10-08T08:16:28.105Z,57.33
2023-10-08T08:17:34.206Z,57.31
2023-10-08T08:18:40.041Z,57.24
2023-10-08T08:19:45.664Z,57.25
2023-10-08T08:20:51.324Z,57.25
2023-10-08T08:21:56.873Z,57.26
2023-10-08T08:23:02.416Z,57.2
2023-10-08T08:24:08.482Z,57.12
2023-10-08T08:25:14.053Z,57.1
2023-10-08T08:26:19.591Z,57.08
2023-10-08T08:27:25.358Z,57.09
2023-10-08T08:28:31.030Z,57.1
2023-10-08T08:29:36.880Z,57.11
2023-10-08T08:30:42.636Z,57.08
2023-10-08T08:31:48.171Z,57.03
2023-10-08T08:32:56.988Z,57.02
2023-10-08T08:34:02.619Z,56.99
2023-10-08T08:35:08.164Z,56.93
2023-10-08T08:36:13.769Z,56.91
2023-10-08T08:37:19.323Z,56.96
2023-10-08T08:38:24.870Z,56.89
2023-10-08T08:39:30.722Z,56.86
2023-10-08T08:40:36.224Z,56.89
2023-10-08T08:41:42.045Z,56.76
2023-10-08T08:42:47.719Z,56.75
2023-10-08T08:43:53.274Z,56.78
2023-10-08T08:44:58.902Z,56.76
2023-10-08T08:46:04.793Z,56.76
2023-10-08T08:47:10.483Z,56.73
2023-10-08T08:48:16.376Z,56.7
2023-10-08T08:49:21.905Z,56.76
2023-10-08T08:50:27.588Z,56.72
2023-10-08T08:51:33.185Z,56.63
2023-10-08T08:52:38.712Z,56.64
2023-10-08T08:53:44.413Z,56.59
2023-10-08T08:54:49.955Z,56.62
2023-10-08T08:55:55.452Z,56.62
2023-10-08T08:57:01.090Z,56.54
2023-10-08T08:58:06.713Z,56.64
2023-10-08T08:59:12.204Z,56.6
2023-10-08T09:00:17.816Z,56.56
2023-10-08T09:01:23.487Z,56.51
2023-10-08T09:02:29.458Z,56.52
2023-10-08T09:03:35.798Z,56.46
2023-10-08T09:04:41.473Z,56.46
2023-10-08T09:05:47.251Z,56.37
2023-10-08T09:06:53.801Z,56.27
2023-10-08T09:07:59.580Z,56.24
2023-10-08T09:09:05.331Z,56.26
2023-10-08T09:10:10.960Z,56.28
2023-10-08T09:11:16.524Z,56.31
2023-10-08T09:12:22.078Z,56.27
2023-10-08T09:13:27.676Z,56.26
2023-10-08T09:14:33.383Z,56.28
2023-10-08T09:15:38.993Z,56.38
2023-10-08T09:16:44.681Z,56.32
2023-10-08T09:17:51.612Z,56.28
2023-10-08T09:18:57.159Z,56.2
2023-10-08T09:20:02.684Z,56.15
2023-10-08T09:21:08.403Z,56.15
2023-10-08T09:22:14.074Z,56.17
2023-10-08T09:23:19.576Z,56.2
2023-10-08T09:24:25.097Z,56.22
2023-10-08T09:25:30.624Z,56.23
2023-10-08T09:26:36.296Z,56.14
2023-10-08T09:27:44.655Z,56.08
2023-10-08T09:28:50.625Z,56.12
2023-10-08T09:29:56.339Z,56.04
2023-10-08T09:31:01.882Z,56.05
2023-10-08T09:32:07.661Z,56
2023-10-08T09:33:13.540Z,56.07
2023-10-08T09:34:19.214Z,55.98
2023-10-08T09:35:24.773Z,55.94
2023-10-08T09:36:30.304Z,55.98
2023-10-08T09:37:35.916Z,55.95
2023-10-08T09:38:41.538Z,55.96
2023-10-08T09:39:47.136Z,55.92
2023-10-08T09:40:52.778Z,55.87
2023-10-08T09:41:58.546Z,55.9
2023-10-08T09:43:04.135Z,55.91
2023-10-08T09:44:09.658Z,55.9
2023-10-08T09:45:15.215Z,55.9
2023-10-08T09:46:21.066Z,55.94
2023-10-08T09:47:26.775Z,55.85
2023-10-08T09:48:32.783Z,55.84
2023-10-08T09:49:38.379Z,55.78
2023-10-08T09:50:44.110Z,55.77
2023-10-08T09:51:49.665Z,55.75
2023-10-08T09:52:55.227Z,55.72
2023-10-08T09:54:01.158Z,55.72
2023-10-08T09:55:06.830Z,55.7
2023-10-08T09:56:12.331Z,55.69
2023-10-08T09:57:17.830Z,55.61
2023-10-08T09:58:23.420Z,55.61
2023-10-08T09:59:29.030Z,55.54
2023-10-08T10:00:37.566Z,55.54
2023-10-08T10:01:43.339Z,55.53
2023-10-08T10:02:49.286Z,55.46
2023-10-08T10:03:55.350Z,55.51
2023-10-08T10:05:00.896Z,55.5
2023-10-08T10:06:06.524Z,55.51
2023-10-08T10:07:12.125Z,55.54
2023-10-08T10:08:17.657Z,55.49
2023-10-08T10:09:23.454Z,55.48
2023-10-08T10:10:29.064Z,55.48
2023-10-08T10:11:34.736Z,55.49
2023-10-08T10:12:40.279Z,55.47
2023-10-08T10:13:46.312Z,55.48
2023-10-08T10:14:51.947Z,55.37
2023-10-08T10:15:57.572Z,55.39
2023-10-08T10:17:03.128Z,55.34
2023-10-08T10:18:09.009Z,55.3
2023-10-08T10:19:14.723Z,55.25
2023-10-08T10:20:20.361Z,55.24
2023-10-08T10:21:25.889Z,55.21
2023-10-08T10:22:31.423Z,55.19
2023-10-08T10:23:37.117Z,55.12
2023-10-08T10:24:42.709Z,55.08
2023-10-08T10:25:48.245Z,55.09
2023-10-08T10:26:53.906Z,55.11
2023-10-08T10:27:59.538Z,55.09
2023-10-08T10:29:05.104Z,55.11
2023-10-08T10:30:10.733Z,55.12
2023-10-08T10:31:16.383Z,55.1
2023-10-08T10:32:21.972Z,55.03
2023-10-08T10:33:27.741Z,55
2023-10-08T10:34:33.323Z,55.01
2023-10-08T10:35:38.952Z,54.96
2023-10-08T10:36:44.510Z,54.96
2023-10-08T10:37:50.116Z,54.98
2023-10-08T10:38:55.736Z,54.96
2023-10-08T10:40:01.268Z,54.96
2023-10-08T10:41:06.860Z,54.98
2023-10-08T10:42:12.440Z,54.91
2023-10-08T10:43:17.938Z,54.94
2023-10-08T10:44:23.572Z,54.9
2023-10-08T10:45:29.143Z,54.93
2023-10-08T10:46:35.112Z,54.93
2023-10-08T10:47:40.842Z,54.9
2023-10-08T10:48:46.780Z,54.9
2023-10-08T10:49:52.421Z,54.91
2023-10-08T10:50:58.101Z,54.85
2023-10-08T10:52:03.695Z,54.8
2023-10-08T10:53:09.208Z,54.8
2023-10-08T10:54:15.417Z,54.79
2023-10-08T10:55:21.211Z,54.79
2023-10-08T10:56:26.791Z,54.82
2023-10-08T10:57:32.548Z,54.79
2023-10-08T10:58:38.090Z,54.81
2023-10-08T10:59:47.020Z,54.82
2023-10-08T11:00:52.728Z,54.82
2023-10-08T11:01:58.317Z,54.76
2023-10-08T11:03:04.557Z,54.78
2023-10-08T11:04:10.534Z,54.71
2023-10-08T11:05:16.152Z,54.61
2023-10-08T11:06:21.842Z,54.59
2023-10-08T11:07:27.330Z,54.57
2023-10-08T11:08:33.159Z,54.54
2023-10-08T11:09:38.824Z,54.54
2023-10-08T11:10:44.403Z,54.47
2023-10-08T11:11:50.130Z,54.45
2023-10-08T11:12:55.792Z,54.43
2023-10-08T11:14:01.969Z,54.48
2023-10-08T11:15:08.255Z,54.51
2023-10-08T11:16:13.929Z,54.51
2023-10-08T11:17:19.530Z,54.52
2023-10-08T11:18:28.185Z,54.54
2023-10-08T11:19:33.771Z,54.52
2023-10-08T11:20:39.447Z,54.56
2023-10-08T11:21:45.040Z,54.53
2023-10-08T11:22:50.577Z,54.45
2023-10-08T11:23:56.955Z,54.48
2023-10-08T11:25:02.770Z,54.49
2023-10-08T11:26:08.722Z,54.46
2023-10-08T11:27:14.366Z,54.42
2023-10-08T11:28:19.897Z,54.41
2023-10-08T11:29:25.398Z,54.43
2023-10-08T11:30:30.928Z,54.4
2023-10-08T11:31:37.282Z,54.42
2023-10-08T11:32:43.158Z,54.35
2023-10-08T11:33:48.923Z,54.33
2023-10-08T11:34:54.482Z,54.34
2023-10-08T11:36:00.251Z,54.33
2023-10-08T11:37:05.876Z,54.34
2023-10-08T11:38:11.369Z,54.32
2023-10-08T11:39:16.903Z,54.33
2023-10-08T11:40:22.384Z,54.31
2023-10-08T11:41:27.968Z,54.25
2023-10-08T11:42:33.546Z,54.18
2023-10-08T11:43:39.118Z,54.21
2023-10-08T11:44:44.738Z,54.19
2023-10-08T11:45:50.253Z,54.15
2023-10-08T11:46:56.166Z,54.17
2023-10-08T11:48:01.963Z,54.16
2023-10-08T11:49:07.593Z,54.16
2023-10-08T11:50:13.248Z,54.11
2023-10-08T11:51:18.807Z,54.09
2023-10-08T11:52:24.877Z,54.08
2023-10-08T11:53:30.509Z,54.05
2023-10-08T11:54:36.080Z,54.06
2023-10-08T11:55:41.711Z,54.06
2023-10-08T11:56:47.458Z,54.08
2023-10-08T11:57:53.189Z,54.07
2023-10-08T11:58:58.821Z,54.05
2023-10-08T12:00:06.277Z,54.06
2023-10-08T12:01:15.340Z,54
2023-10-08T12:02:20.950Z,54.01
2023-10-08T12:03:26.933Z,54.02
2023-10-08T12:04:33.217Z,53.95
2023-10-08T12:05:39.598Z,53.93
2023-10-08T12:06:45.376Z,53.84
2023-10-08T12:07:50.932Z,53.87
2023-10-08T12:08:56.682Z,53.82
2023-10-08T12:10:02.280Z,53.82
2023-10-08T12:11:07.795Z,53.79
2023-10-08T12:12:13.791Z,53.78
2023-10-08T12:13:21.707Z,53.72
2023-10-08T12:14:27.196Z,53.75
2023-10-08T12:15:32.796Z,53.78
2023-10-08T12:16:38.408Z,53.75
2023-10-08T12:17:44.165Z,53.72
2023-10-08T12:18:50.281Z,53.81
2023-10-08T12:19:55.893Z,53.81
2023-10-08T12:21:01.648Z,53.77
2023-10-08T12:22:07.202Z,53.81
2023-10-08T12:23:12.709Z,53.74
2023-10-08T12:24:19.135Z,53.79
2023-10-08T12:25:24.695Z,53.77
2023-10-08T12:26:30.259Z,53.76
2023-10-08T12:27:35.771Z,53.74
2023-10-08T12:28:41.316Z,53.69
2023-10-08T12:29:47.068Z,53.72
2023-10-08T12:30:52.798Z,53.73
2023-10-08T12:31:58.364Z,53.7
2023-10-08T12:33:04.525Z,53.76
2023-10-08T12:34:10.153Z,53.74
2023-10-08T12:35:15.757Z,53.75
2023-10-08T12:36:21.254Z,53.75
2023-10-08T12:37:26.812Z,53.75
2023-10-08T12:38:32.411Z,53.79
2023-10-08T12:39:37.966Z,53.73
2023-10-08T12:40:43.612Z,53.73
2023-10-08T12:41:49.571Z,53.76
2023-10-08T12:42:55.142Z,53.74
2023-10-08T12:44:00.855Z,53.69
2023-10-08T12:45:06.557Z,53.7
2023-10-08T12:46:12.209Z,53.68
2023-10-08T12:47:17.801Z,53.67
2023-10-08T12:48:23.694Z,53.73
2023-10-08T12:49:29.265Z,53.7
2023-10-08T12:50:34.887Z,53.7
2023-10-08T12:51:40.520Z,53.65
2023-10-08T12:52:46.085Z,53.67
2023-10-08T12:53:52.060Z,53.62
2023-10-08T12:54:57.729Z,53.63
2023-10-08T12:56:03.279Z,53.65
2023-10-08T12:57:09.015Z,53.62
2023-10-08T12:58:14.831Z,53.57
2023-10-08T12:59:20.320Z,53.53
2023-10-08T13:00:25.998Z,53.5
2023-10-08T13:01:31.553Z,53.52
2023-10-08T13:02:37.726Z,53.53
2023-10-08T13:03:43.870Z,53.51
2023-10-08T13:04:49.441Z,53.47
2023-10-08T13:05:57.367Z,53.5
2023-10-08T13:07:03.159Z,53.5
2023-10-08T13:08:08.741Z,53.44
2023-10-08T13:09:14.371Z,53.47
2023-10-08T13:10:19.972Z,53.44
2023-10-08T13:11:25.600Z,53.37
2023-10-08T13:12:31.246Z,53.36
2023-10-08T13:13:36.772Z,53.33
2023-10-08T13:14:42.383Z,53.26
2023-10-08T13:15:47.910Z,53.27
2023-10-08T13:16:53.621Z,53.25
2023-10-08T13:17:59.407Z,53.26
2023-10-08T13:19:04.983Z,53.27
2023-10-08T13:20:10.533Z,53.22
2023-10-08T13:21:16.391Z,53.11
2023-10-08T13:22:21.994Z,53.13
2023-10-08T13:23:27.534Z,53.15
2023-10-08T13:24:33.223Z,53.14
2023-10-08T13:25:38.737Z,53.11
2023-10-08T13:26:44.288Z,53.12
2023-10-08T13:27:49.857Z,53.11
2023-10-08T13:28:55.383Z,53.11
2023-10-08T13:30:01.153Z,53.12
2023-10-08T13:31:07.020Z,53.13
2023-10-08T13:32:12.726Z,53.07
2023-10-08T13:33:18.570Z,53.08
2023-10-08T13:34:24.154Z,53.05
2023-10-08T13:35:29.683Z,53.03
2023-10-08T13:36:35.266Z,53
2023-10-08T13:37:40.827Z,53.02
2023-10-08T13:38:46.430Z,53.04
2023-10-08T13:39:51.940Z,52.97
2023-10-08T13:40:57.440Z,52.96
2023-10-08T13:42:03.143Z,52.92
2023-10-08T13:43:08.689Z,52.94
2023-10-08T13:44:14.897Z,52.92
2023-10-08T13:45:20.891Z,52.93
2023-10-08T13:46:26.623Z,52.92
2023-10-08T13:47:32.321Z,52.97
2023-10-08T13:48:38.314Z,52.87
2023-10-08T13:49:43.958Z,52.87
2023-10-08T13:50:49.597Z,52.9
2023-10-08T13:51:55.188Z,52.91
2023-10-08T13:53:00.690Z,52.78
2023-10-08T13:54:06.821Z,52.8
2023-10-08T13:55:12.386Z,52.81
2023-10-08T13:56:17.963Z,52.76
2023-10-08T13:57:23.665Z,52.72
2023-10-08T13:58:29.196Z,52.68
2023-10-08T13:59:35.642Z,52.73
2023-10-08T14:00:41.199Z,52.77
2023-10-08T14:01:47.440Z,52.7
2023-10-08T14:02:53.453Z,52.69
2023-10-08T14:03:59.549Z,52.68
2023-10-08T14:05:05.170Z,52.69
2023-10-08T14:06:10.866Z,52.64
2023-10-08T14:07:16.490Z,52.67
2023-10-08T14:08:21.990Z,52.61
2023-10-08T14:09:27.561Z,52.52